Hauptseite
METAR-TAF:

METAR-TAF

Flughäfen :

Humberside Airport

Humberside, England

Breite: 53-35N, Länge: 000-21W, Höhe: 31 m

Beobachtung

Neuester Wetterbericht von vor 26 Minuten, um 09:50 UTC
Wind 15 kt aus Süd/Südwest
Temperatur 20°C
Luftfeuchtigkeit 68%
Luftdruck 1017 hPa
Sichtweite 10 km oder mehr
Durchbrochene Bewölkung in der Höhe von 2400 ft

METAR: EGNJ 180950Z 21015KT 9999 BKN024 20/14 Q1017

Zeit: 11:16 (10:16 UTC)

Prognose

Neuester Wetterbericht von vor 2 Stunden und 15 Minuten, um 08:01 UTC
Gültige Prognose vom 18 um 09 UTC bis 18 um 18 UTC
Wind 15 kt aus Südwest
Sichtweite 10 km oder mehr
Aufgelockert bewölkt in der Höhe von 2500 ft

TAF: EGNJ 180801Z 1809/1818 23015KT 9999 SCT025

Wetterbeobachtungen und Prognosen von mehr als 4000 Flughäfen (METAR und TAF Bericht).

Die verfügbaren Stationen werden durch gelbe und rote Markierungen auf der Karte dargestellt.

Führen Sie die Maus auf sie, um den Namen der Station zu sehen.

Darauf klicken, um die Beobachtung von Wetterbeobachtungen und Prognosen zu sehen.

Um die Karte zu ändern : klicken Sie auf den grünen Tasten mit einem schwarzen Kreuz Zum Vergrößern, auf den grünen Button mit einem Gedankenstrich zu verkleinern, oder auf die grünen Pfeile für benachbarte Karten.


METAR-TAF: